createdAt,value
2017-04-17T00:00:05.447Z,34.5
2017-04-17T00:02:05.076Z,34.5
2017-04-17T00:04:11.009Z,34.6
2017-04-17T00:06:06.112Z,34.6
2017-04-17T00:08:06.226Z,34.6
2017-04-17T00:10:05.043Z,34.6
2017-04-17T00:12:11.148Z,34.6
2017-04-17T00:14:05.858Z,34.6
2017-04-17T00:16:05.546Z,34.6
2017-04-17T00:18:05.145Z,34.7
2017-04-17T00:20:05.862Z,34.6
2017-04-17T00:22:08.130Z,34.6
2017-04-17T00:24:06.355Z,34.6
2017-04-17T00:26:05.071Z,34.6
2017-04-17T00:28:08.226Z,34.6
2017-04-17T00:30:06.179Z,34.6
2017-04-17T00:32:05.115Z,34.6
2017-04-17T00:34:05.782Z,34.7
2017-04-17T00:36:05.878Z,34.6
2017-04-17T00:38:05.615Z,34.7
2017-04-17T00:40:05.534Z,34.7
2017-04-17T00:42:08.463Z,34.7
2017-04-17T00:44:05.145Z,34.7
2017-04-17T00:46:05.850Z,34.6
2017-04-17T00:48:05.752Z,34.7
2017-04-17T00:50:05.605Z,34.7
2017-04-17T00:52:05.299Z,34.7
2017-04-17T00:54:08.666Z,34.7
2017-04-17T00:56:05.687Z,34.7
2017-04-17T00:58:07.930Z,34.7
2017-04-17T01:00:05.982Z,34.7
2017-04-17T01:02:05.704Z,34.7
2017-04-17T01:04:07.947Z,34.7
2017-04-17T01:06:05.862Z,34.7
2017-04-17T01:08:05.540Z,34.7
2017-04-17T01:10:05.241Z,34.7
2017-04-17T01:12:06.277Z,34.8
2017-04-17T01:14:05.603Z,34.8
2017-04-17T01:16:07.573Z,34.8
2017-04-17T01:18:08.395Z,34.7
2017-04-17T01:20:05.116Z,34.7
2017-04-17T01:22:05.831Z,34.7
2017-04-17T01:24:05.653Z,34.7
2017-04-17T01:26:05.902Z,34.7
2017-04-17T01:28:05.758Z,34.7
2017-04-17T01:30:05.772Z,34.7
2017-04-17T01:32:08.028Z,34.7
2017-04-17T01:34:05.784Z,34.7
2017-04-17T01:36:10.717Z,34.7
2017-04-17T01:38:05.453Z,34.7
2017-04-17T01:40:05.166Z,34.7
2017-04-17T01:42:11.327Z,34.7
2017-04-17T01:44:05.281Z,34.7
2017-04-17T01:46:05.972Z,34.5
2017-04-17T01:48:06.017Z,34.5
2017-04-17T01:50:05.686Z,34.7
2017-04-17T01:52:07.942Z,34.7
2017-04-17T01:54:05.780Z,34.5
2017-04-17T01:56:05.452Z,34.5
2017-04-17T01:58:07.650Z,34.5
2017-04-17T02:00:05.696Z,34.5
2017-04-17T02:02:05.960Z,34.5
2017-04-17T02:04:05.669Z,34.5
2017-04-17T02:06:06.247Z,34.5
2017-04-17T02:08:05.972Z,34.5
2017-04-17T02:10:05.177Z,34.5
2017-04-17T02:12:08.097Z,34.5
2017-04-17T02:14:08.472Z,34.5
2017-04-17T02:16:05.486Z,34.5
2017-04-17T02:18:05.727Z,34.5
2017-04-17T02:20:05.492Z,34.5
2017-04-17T02:22:05.312Z,34.5
2017-04-17T02:24:05.832Z,34.5
2017-04-17T02:26:05.599Z,34.4
2017-04-17T02:28:07.884Z,34.5
2017-04-17T02:30:08.532Z,34.5
2017-04-17T02:32:05.884Z,34.5
2017-04-17T02:34:05.096Z,34.5
2017-04-17T02:36:05.989Z,34.5
2017-04-17T02:38:05.668Z,34.5
2017-04-17T02:40:05.392Z,34.5
2017-04-17T02:42:10.962Z,34.5
2017-04-17T02:44:05.700Z,34.5
2017-04-17T02:46:05.596Z,34.5
2017-04-17T02:48:10.689Z,34.5
2017-04-17T02:50:07.947Z,34.5
2017-04-17T02:52:07.861Z,34.5
2017-04-17T02:54:05.696Z,34.5
2017-04-17T02:56:05.889Z,34.5
2017-04-17T02:58:08.115Z,34.5
2017-04-17T03:00:06.117Z,34.5
2017-04-17T03:02:05.848Z,34.5
2017-04-17T03:04:05.713Z,34.5
2017-04-17T03:06:08.044Z,34.5
2017-04-17T03:08:05.784Z,34.5
2017-04-17T03:10:05.453Z,34.5
2017-04-17T03:12:05.458Z,34.5
2017-04-17T03:14:05.179Z,34.5
2017-04-17T03:16:13.068Z,34.5
2017-04-17T03:18:23.005Z,34.5
2017-04-17T03:20:05.418Z,34.5
2017-04-17T03:22:05.232Z,34.5
2017-04-17T03:24:06.050Z,34.5
2017-04-17T03:26:08.339Z,34.5
2017-04-17T03:28:05.060Z,34.3
2017-04-17T03:30:06.103Z,34.5
2017-04-17T03:32:05.432Z,34.5
2017-04-17T03:34:05.146Z,34.5
2017-04-17T03:36:06.158Z,34.3
2017-04-17T03:38:05.950Z,34.3
2017-04-17T03:40:05.663Z,34.3
2017-04-17T03:42:05.585Z,34.3
2017-04-17T03:44:05.820Z,34.3
2017-04-17T03:46:10.574Z,34.3
2017-04-17T03:48:08.150Z,34.3
2017-04-17T03:50:05.915Z,34.3
2017-04-17T03:52:08.489Z,34.3
2017-04-17T03:54:05.604Z,34.2
2017-04-17T03:56:07.798Z,34.3
2017-04-17T03:58:05.582Z,34.3
2017-04-17T04:00:05.529Z,34.3
2017-04-17T04:02:05.218Z,34.3
2017-04-17T04:04:08.471Z,34.3
2017-04-17T04:06:08.263Z,34.3
2017-04-17T04:08:16.429Z,34.3
2017-04-17T04:10:05.219Z,34.3
2017-04-17T04:12:05.823Z,34.3
2017-04-17T04:14:08.057Z,34.3
2017-04-17T04:16:05.828Z,34.3
2017-04-17T04:18:11.049Z,34.3
2017-04-17T04:20:05.268Z,34.3
2017-04-17T04:22:13.556Z,34.3
2017-04-17T04:24:08.164Z,34.3
2017-04-17T04:26:10.938Z,34.3
2017-04-17T04:28:05.655Z,34.3
2017-04-17T04:30:05.518Z,34.3
2017-04-17T04:32:05.774Z,34.3
2017-04-17T04:34:08.127Z,34.3
2017-04-17T04:36:13.759Z,34.1
2017-04-17T04:38:05.431Z,34.3
2017-04-17T04:40:07.916Z,34.3
2017-04-17T04:42:07.960Z,34.3
2017-04-17T04:44:06.852Z,34.3
2017-04-17T04:46:08.074Z,34.3
2017-04-17T04:48:08.098Z,34.3
2017-04-17T04:50:05.931Z,34.3
2017-04-17T04:52:05.670Z,34.3
2017-04-17T04:54:05.501Z,34.1
2017-04-17T04:56:06.132Z,34.3
2017-04-17T04:58:07.914Z,34.3
2017-04-17T05:00:10.816Z,34.1
2017-04-17T05:02:10.177Z,34.1
2017-04-17T05:04:05.865Z,34.3
2017-04-17T05:06:05.863Z,34.1
2017-04-17T05:08:05.562Z,34.1
2017-04-17T05:10:05.289Z,34.1
2017-04-17T05:12:06.374Z,34.1
2017-04-17T05:14:07.572Z,34.1
2017-04-17T05:16:07.842Z,34.3
2017-04-17T05:18:05.365Z,34.1
2017-04-17T05:20:05.093Z,34.4
2017-04-17T05:22:05.868Z,34.4
2017-04-17T05:24:05.789Z,34.2
2017-04-17T05:26:05.454Z,34.1
2017-04-17T05:28:07.942Z,34.2
2017-04-17T05:30:05.902Z,34.2
2017-04-17T05:32:05.689Z,34.1
2017-04-17T05:34:05.467Z,34.2
2017-04-17T05:36:07.863Z,34.2
2017-04-17T05:38:05.547Z,34.2
2017-04-17T05:40:05.541Z,34.1
2017-04-17T05:42:05.832Z,34.2
2017-04-17T05:44:08.493Z,34.2
2017-04-17T05:46:05.205Z,34.1
2017-04-17T05:48:06.259Z,34.1
2017-04-17T05:50:05.946Z,34.2
2017-04-17T05:52:13.274Z,34.2
2017-04-17T05:54:06.449Z,34.1
2017-04-17T05:56:05.156Z,34.2
2017-04-17T05:58:05.959Z,34.2
2017-04-17T06:00:05.966Z,34.2
2017-04-17T06:02:05.657Z,34.2
2017-04-17T06:04:07.901Z,34.1
2017-04-17T06:06:08.654Z,34.2
2017-04-17T06:08:10.649Z,34.2
2017-04-17T06:10:05.371Z,34.2
2017-04-17T06:12:05.186Z,34.2
2017-04-17T06:14:05.822Z,34.2
2017-04-17T06:16:05.244Z,34.2
2017-04-17T06:18:05.461Z,34.2
2017-04-17T06:20:07.773Z,34.2
2017-04-17T06:22:05.954Z,34.2
2017-04-17T06:24:08.076Z,34.2
2017-04-17T06:26:05.790Z,34.2
2017-04-17T06:28:08.004Z,34.2
2017-04-17T06:30:05.368Z,34.2
2017-04-17T06:32:12.815Z,34.2
2017-04-17T06:34:05.473Z,34.2
2017-04-17T06:36:05.537Z,34.2
2017-04-17T06:38:05.219Z,34.2
2017-04-17T06:40:05.886Z,34.2
2017-04-17T06:42:05.999Z,34.3
2017-04-17T06:44:06.009Z,34.4
2017-04-17T06:46:05.676Z,34.4
2017-04-17T06:48:09.453Z,34.4
2017-04-17T06:50:10.177Z,34.4
2017-04-17T06:52:05.991Z,34.4
2017-04-17T06:54:06.520Z,34.4
2017-04-17T06:56:05.999Z,34.4
2017-04-17T06:58:08.079Z,34.4
2017-04-17T07:00:10.942Z,34.4
2017-04-17T07:02:08.986Z,34.4
2017-04-17T07:04:09.167Z,34.4
2017-04-17T07:06:10.976Z,34.4
2017-04-17T07:08:05.617Z,34.4
2017-04-17T07:10:05.302Z,34.4
2017-04-17T07:12:06.362Z,34.4
2017-04-17T07:14:05.054Z,34.5
2017-04-17T07:16:07.918Z,34.5
2017-04-17T07:18:06.301Z,34.4
2017-04-17T07:20:06.411Z,34.5
2017-04-17T07:22:05.132Z,34.5
2017-04-17T07:24:08.569Z,34.5
2017-04-17T07:26:07.836Z,34.4
2017-04-17T07:28:05.609Z,34.4
2017-04-17T07:30:08.432Z,34.4
2017-04-17T07:32:05.150Z,34.4
2017-04-17T07:34:06.013Z,34.4
2017-04-17T07:36:05.624Z,34.4
2017-04-17T07:38:07.914Z,34.4
2017-04-17T07:40:05.620Z,34.4
2017-04-17T07:42:05.639Z,34.5
2017-04-17T07:44:05.439Z,34.4
2017-04-17T07:46:05.146Z,34.5
2017-04-17T07:48:06.317Z,34.5
2017-04-17T07:50:04.981Z,34.5
2017-04-17T07:52:05.363Z,34.5
2017-04-17T07:54:05.888Z,34.6
2017-04-17T07:56:08.126Z,34.6
2017-04-17T07:58:08.362Z,34.6
2017-04-17T08:00:05.390Z,34.7
2017-04-17T08:02:07.886Z,34.7
2017-04-17T08:04:05.779Z,34.7
2017-04-17T08:06:05.798Z,34.5
2017-04-17T08:08:05.857Z,34.5
2017-04-17T08:10:06.035Z,34.8
2017-04-17T08:12:06.228Z,34.8
2017-04-17T08:14:05.928Z,34.8
2017-04-17T08:16:05.807Z,34.6
2017-04-17T08:18:07.964Z,34.6
2017-04-17T08:20:05.644Z,34.5
2017-04-17T08:22:08.421Z,34.6
2017-04-17T08:24:05.522Z,34.8
2017-04-17T08:26:05.345Z,34.6
2017-04-17T08:28:10.158Z,34.6
2017-04-17T08:30:08.536Z,34.6
2017-04-17T08:32:05.280Z,34.6
2017-04-17T08:34:05.972Z,34.6
2017-04-17T08:36:05.816Z,34.6
2017-04-17T08:38:05.521Z,34.6
2017-04-17T08:40:08.109Z,34.6
2017-04-17T08:42:06.079Z,34.6
2017-04-17T08:44:13.380Z,34.6
2017-04-17T08:46:05.287Z,34.6
2017-04-17T08:48:06.296Z,34.6
2017-04-17T08:50:05.099Z,34.6
2017-04-17T08:52:05.807Z,34.7
2017-04-17T08:54:05.688Z,34.6
2017-04-17T08:56:13.645Z,34.6
2017-04-17T08:58:08.368Z,34.7
2017-04-17T09:00:05.896Z,34.6
2017-04-17T09:02:05.677Z,34.6
2017-04-17T09:04:05.442Z,34.6
2017-04-17T09:06:05.584Z,34.6
2017-04-17T09:08:05.222Z,34.6
2017-04-17T09:10:05.955Z,34.6
2017-04-17T09:12:05.991Z,34.6
2017-04-17T09:14:05.681Z,34.6
2017-04-17T09:16:05.394Z,34.6
2017-04-17T09:18:05.753Z,34.6
2017-04-17T09:20:05.977Z,34.6
2017-04-17T09:22:05.733Z,34.6
2017-04-17T09:24:05.835Z,34.6
2017-04-17T09:26:08.055Z,34.6
2017-04-17T09:28:05.984Z,34.6
2017-04-17T09:30:18.683Z,34.6
2017-04-17T09:32:13.511Z,34.6
2017-04-17T09:34:05.243Z,34.6
2017-04-17T09:36:08.232Z,34.5
2017-04-17T09:38:05.946Z,34.5
2017-04-17T09:40:05.673Z,34.6
2017-04-17T09:42:05.744Z,34.5
2017-04-17T09:44:05.544Z,34.6
2017-04-17T09:46:05.260Z,34.6
2017-04-17T09:48:06.282Z,34.5
2017-04-17T09:50:05.936Z,34.5
2017-04-17T09:52:05.370Z,34.5
2017-04-17T09:54:05.260Z,34.5
2017-04-17T09:56:05.021Z,34.5
2017-04-17T09:58:05.715Z,34.6
2017-04-17T10:00:05.889Z,34.6
2017-04-17T10:02:05.570Z,34.5
2017-04-17T10:04:05.245Z,34.5
2017-04-17T10:06:06.165Z,34.6
2017-04-17T10:08:05.970Z,34.6
2017-04-17T10:10:08.155Z,34.6
2017-04-17T10:12:06.221Z,34.6
2017-04-17T10:14:06.043Z,34.5
2017-04-17T10:16:05.918Z,34.6
2017-04-17T10:18:06.010Z,34.6
2017-04-17T10:20:05.826Z,35.5
2017-04-17T10:22:05.048Z,34.8
2017-04-17T10:24:05.918Z,34.8
2017-04-17T10:26:05.605Z,34.8
2017-04-17T10:28:05.307Z,34.8
2017-04-17T10:30:05.187Z,34.8
2017-04-17T10:32:08.563Z,34.7
2017-04-17T10:34:07.837Z,34.8
2017-04-17T10:36:05.931Z,34.8
2017-04-17T10:38:08.205Z,34.8
2017-04-17T10:40:08.451Z,34.8
2017-04-17T10:42:05.946Z,34.8
2017-04-17T10:44:05.672Z,34.8
2017-04-17T10:46:08.476Z,34.8
2017-04-17T10:48:05.443Z,34.8
2017-04-17T10:50:05.174Z,34.7
2017-04-17T10:52:05.876Z,34.8
2017-04-17T10:54:05.860Z,34.8
2017-04-17T10:56:05.587Z,34.8
2017-04-17T10:58:05.291Z,34.8
2017-04-17T11:00:08.451Z,34.8
2017-04-17T11:02:05.215Z,34.8
2017-04-17T11:04:11.256Z,34.8
2017-04-17T11:06:08.900Z,34.8
2017-04-17T11:08:05.709Z,34.8
2017-04-17T11:10:07.948Z,34.8
2017-04-17T11:12:05.983Z,34.8
2017-04-17T11:14:05.729Z,34.8
2017-04-17T11:16:10.128Z,34.8
2017-04-17T11:18:05.386Z,34.8
2017-04-17T11:20:07.953Z,34.8
2017-04-17T11:22:05.728Z,34.8
2017-04-17T11:24:06.530Z,34.8
2017-04-17T11:26:05.327Z,34.8
2017-04-17T11:28:05.096Z,34.8
2017-04-17T11:30:07.147Z,34.8
2017-04-17T11:32:05.866Z,34.8
2017-04-17T11:34:12.961Z,34.7
2017-04-17T11:36:06.084Z,34.7
2017-04-17T11:38:05.355Z,34.7
2017-04-17T11:40:08.254Z,34.7
2017-04-17T11:42:05.912Z,34.7
2017-04-17T11:44:05.606Z,34.7
2017-04-17T11:46:05.299Z,34.7
2017-04-17T11:48:06.033Z,34.7
2017-04-17T11:50:06.385Z,34.7
2017-04-17T11:52:09.923Z,34.7
2017-04-17T11:54:05.348Z,34.7
2017-04-17T11:56:09.491Z,34.6
2017-04-17T11:58:05.866Z,34.6
2017-04-17T12:00:05.744Z,34.6
2017-04-17T12:02:07.399Z,34.6
2017-04-17T12:04:08.189Z,34.6
2017-04-17T12:06:06.234Z,34.6
2017-04-17T12:08:06.193Z,34.6
2017-04-17T12:10:05.943Z,34.6
2017-04-17T12:12:06.161Z,34.6
2017-04-17T12:14:05.204Z,34.8
2017-04-17T12:16:05.445Z,34.6
2017-04-17T12:18:05.751Z,34.5
2017-04-17T12:20:08.044Z,34.8
2017-04-17T12:22:05.766Z,34.8
2017-04-17T12:24:05.662Z,34.7
2017-04-17T12:26:05.398Z,34.8
2017-04-17T12:28:05.692Z,34.8
2017-04-17T12:30:05.775Z,34.8
2017-04-17T12:32:05.411Z,34.7
2017-04-17T12:34:05.217Z,34.7
2017-04-17T12:36:06.123Z,34.7
2017-04-17T12:38:05.778Z,34.7
2017-04-17T12:40:08.804Z,34.5
2017-04-17T12:42:05.345Z,34.5
2017-04-17T12:44:05.038Z,34.7
2017-04-17T12:46:05.746Z,34.5
2017-04-17T12:48:05.767Z,34.5
2017-04-17T12:50:05.433Z,34.6
2017-04-17T12:52:10.235Z,34.5
2017-04-17T12:54:13.811Z,34.5
2017-04-17T12:56:05.829Z,34.5
2017-04-17T12:58:05.674Z,34.5
2017-04-17T13:00:05.749Z,34.5
2017-04-17T13:02:13.611Z,34.5
2017-04-17T13:04:05.310Z,34.5
2017-04-17T13:06:07.789Z,34.6
2017-04-17T13:08:05.463Z,34.5
2017-04-17T13:10:05.131Z,34.5
2017-04-17T13:12:06.236Z,34.6
2017-04-17T13:14:05.921Z,34.5
2017-04-17T13:16:05.602Z,34.5
2017-04-17T13:18:05.638Z,34.5
2017-04-17T13:20:05.635Z,34.5
2017-04-17T13:22:05.326Z,34.5
2017-04-17T13:24:05.692Z,34.5
2017-04-17T13:26:05.391Z,34.5
2017-04-17T13:28:05.436Z,34.5
2017-04-17T13:30:05.510Z,34.5
2017-04-17T13:32:05.814Z,34.6
2017-04-17T13:34:05.519Z,34.6
2017-04-17T13:36:05.446Z,34.6
2017-04-17T13:38:05.173Z,34.6
2017-04-17T13:40:05.900Z,34.6
2017-04-17T13:42:05.982Z,34.5
2017-04-17T13:44:05.851Z,34.5
2017-04-17T13:46:05.617Z,34.5
2017-04-17T13:48:08.336Z,34.5
2017-04-17T13:50:05.074Z,34.5
2017-04-17T13:52:05.282Z,34.5
2017-04-17T13:54:06.430Z,34.7
2017-04-17T13:56:05.175Z,34.5
2017-04-17T13:58:05.950Z,34.5
2017-04-17T14:00:06.098Z,34.7
2017-04-17T14:02:08.373Z,34.5
2017-04-17T14:04:09.389Z,34.7
2017-04-17T14:06:11.400Z,34.7
2017-04-17T14:08:06.216Z,34.7
2017-04-17T14:10:08.794Z,34.7
2017-04-17T14:12:07.473Z,34.7
2017-04-17T14:14:06.045Z,34.7
2017-04-17T14:16:07.841Z,34.7
2017-04-17T14:18:05.993Z,34.7
2017-04-17T14:20:05.699Z,34.7
2017-04-17T14:22:05.405Z,34.7
2017-04-17T14:24:05.753Z,34.7
2017-04-17T14:26:07.995Z,34.7
2017-04-17T14:28:05.684Z,34.7
2017-04-17T14:30:05.585Z,34.7
2017-04-17T14:32:08.271Z,34.7
2017-04-17T14:34:08.488Z,34.7
2017-04-17T14:36:07.989Z,34.7
2017-04-17T14:38:05.697Z,34.7
2017-04-17T14:40:07.917Z,34.8
2017-04-17T14:42:11.260Z,34.8
2017-04-17T14:44:07.557Z,34.8
2017-04-17T14:46:06.520Z,34.9
2017-04-17T14:48:06.196Z,34.8
2017-04-17T14:50:08.403Z,34.8
2017-04-17T14:52:05.939Z,34.8
2017-04-17T14:54:09.111Z,34.9
2017-04-17T14:56:08.534Z,34.9
2017-04-17T14:58:07.825Z,34.8
2017-04-17T15:00:06.221Z,34.9
2017-04-17T15:02:05.914Z,34.9
2017-04-17T15:04:05.977Z,34.8
2017-04-17T15:06:06.601Z,35.2
2017-04-17T15:08:05.331Z,35.3
2017-04-17T15:10:05.191Z,34.6
2017-04-17T15:12:06.195Z,33.7
2017-04-17T15:14:05.905Z,33
2017-04-17T15:16:05.707Z,32.6
2017-04-17T15:18:06.124Z,32.8
2017-04-17T15:20:08.914Z,32.4
2017-04-17T15:22:05.576Z,32.4
2017-04-17T15:24:11.160Z,32
2017-04-17T15:26:05.844Z,32
2017-04-17T15:28:08.090Z,31
2017-04-17T15:30:06.136Z,31.1
2017-04-17T15:32:08.547Z,31.8
2017-04-17T15:34:05.243Z,31.6
2017-04-17T15:36:06.280Z,30.9
2017-04-17T15:38:05.110Z,30.9
2017-04-17T15:40:05.937Z,31.1
2017-04-17T15:42:07.202Z,30.5
2017-04-17T15:44:05.407Z,30.5
2017-04-17T15:46:09.777Z,30.8
2017-04-17T15:48:08.514Z,31.2
2017-04-17T15:50:06.299Z,31.2
2017-04-17T15:52:05.976Z,31.9
2017-04-17T15:54:11.233Z,32.7
2017-04-17T15:56:05.790Z,32.7
2017-04-17T15:58:05.756Z,33.1
2017-04-17T16:00:05.613Z,33
2017-04-17T16:02:05.830Z,33
2017-04-17T16:04:05.046Z,33.4
2017-04-17T16:06:13.378Z,33.4
2017-04-17T16:08:05.510Z,33.3
2017-04-17T16:10:06.265Z,33.4
2017-04-17T16:12:06.204Z,33.8
2017-04-17T16:14:10.951Z,33.6
2017-04-17T16:16:07.455Z,33.7
2017-04-17T16:18:06.304Z,33.7
2017-04-17T16:20:05.519Z,34
2017-04-17T16:22:07.743Z,33.9
2017-04-17T16:24:08.291Z,34.2
2017-04-17T16:26:06.058Z,34
2017-04-17T16:28:05.831Z,34
2017-04-17T16:30:05.880Z,34
2017-04-17T16:32:09.037Z,34.1
2017-04-17T16:34:06.908Z,34.1
2017-04-17T16:36:05.830Z,34.2
2017-04-17T16:38:05.526Z,34.2
2017-04-17T16:40:05.823Z,34.3
2017-04-17T16:42:05.706Z,34.3
2017-04-17T16:44:08.219Z,34.3
2017-04-17T16:46:05.897Z,34.3
2017-04-17T16:48:15.643Z,34.4
2017-04-17T16:50:08.019Z,34.4
2017-04-17T16:52:05.768Z,34.4
2017-04-17T16:54:11.832Z,34.5
2017-04-17T16:56:16.110Z,34.5
2017-04-17T16:58:06.028Z,34.5
2017-04-17T17:00:05.948Z,34.5
2017-04-17T17:02:05.223Z,34.6
2017-04-17T17:04:05.857Z,34.8
2017-04-17T17:06:05.833Z,34.6
2017-04-17T17:08:07.722Z,34.6
2017-04-17T17:10:05.554Z,34.6
2017-04-17T17:12:18.957Z,34.6
2017-04-17T17:14:05.703Z,34.6
2017-04-17T17:16:05.489Z,34.6
2017-04-17T17:18:05.804Z,34.6
2017-04-17T17:20:08.068Z,34.7
2017-04-17T17:22:05.770Z,34.7
2017-04-17T17:24:07.784Z,34.7
2017-04-17T17:26:05.503Z,34.7
2017-04-17T17:28:05.886Z,34.7
2017-04-17T17:30:05.684Z,34.7
2017-04-17T17:32:05.619Z,34.7
2017-04-17T17:34:05.332Z,34.8
2017-04-17T17:36:05.953Z,34.8
2017-04-17T17:38:05.894Z,34.8
2017-04-17T17:40:05.190Z,34.9
2017-04-17T17:42:06.064Z,34.8
2017-04-17T17:44:05.733Z,34.8
2017-04-17T17:46:06.465Z,34.9
2017-04-17T17:48:05.382Z,34.9
2017-04-17T17:50:05.677Z,34.9
2017-04-17T17:52:05.344Z,34.8
2017-04-17T17:54:05.209Z,34.9
2017-04-17T17:56:06.093Z,34.9
2017-04-17T17:58:05.943Z,34.9
2017-04-17T18:00:05.353Z,34.9
2017-04-17T18:02:07.657Z,34.9
2017-04-17T18:04:05.489Z,34.9
2017-04-17T18:06:08.865Z,34.9
2017-04-17T18:08:08.227Z,35
2017-04-17T18:10:05.930Z,35
2017-04-17T18:12:05.579Z,35
2017-04-17T18:14:05.790Z,35
2017-04-17T18:16:08.361Z,35
2017-04-17T18:18:05.681Z,35
2017-04-17T18:20:05.364Z,34.9
2017-04-17T18:22:05.258Z,34.9
2017-04-17T18:24:05.925Z,34.8
2017-04-17T18:26:05.650Z,34.8
2017-04-17T18:28:08.107Z,34.8
2017-04-17T18:30:06.106Z,34.8
2017-04-17T18:32:05.607Z,34.8
2017-04-17T18:34:06.208Z,34.8
2017-04-17T18:36:06.338Z,34.9
2017-04-17T18:38:05.014Z,34.9
2017-04-17T18:40:05.730Z,34.9
2017-04-17T18:42:05.564Z,34.9
2017-04-17T18:44:10.886Z,34.9
2017-04-17T18:46:07.617Z,34.9
2017-04-17T18:48:05.795Z,35
2017-04-17T18:50:05.556Z,35
2017-04-17T18:52:05.214Z,35
2017-04-17T18:54:15.908Z,35
2017-04-17T18:56:05.869Z,35
2017-04-17T18:58:05.591Z,35
2017-04-17T19:00:10.623Z,34.7
2017-04-17T19:02:08.370Z,34.8
2017-04-17T19:04:15.603Z,34.8
2017-04-17T19:06:06.465Z,34.8
2017-04-17T19:08:07.890Z,34.8
2017-04-17T19:10:05.713Z,34.8
2017-04-17T19:12:08.212Z,28.4
2017-04-17T19:14:07.744Z,34.8
2017-04-17T19:16:08.021Z,34.8
2017-04-17T19:18:10.820Z,34.7
2017-04-17T19:20:05.313Z,34.7
2017-04-17T19:22:05.511Z,34.8
2017-04-17T19:24:05.438Z,34.9
2017-04-17T19:26:05.174Z,34.8
2017-04-17T19:28:07.946Z,34.8
2017-04-17T19:30:05.488Z,34.8
2017-04-17T19:32:05.742Z,34.8
2017-04-17T19:34:05.408Z,34.8
2017-04-17T19:36:15.690Z,34.7
2017-04-17T19:38:05.370Z,34.8
2017-04-17T19:40:05.030Z,34.7
2017-04-17T19:42:05.418Z,34.7
2017-04-17T19:44:05.461Z,34.5
2017-04-17T19:46:05.222Z,34.5
2017-04-17T19:48:06.473Z,34.5
2017-04-17T19:50:05.150Z,34.7
2017-04-17T19:52:08.786Z,34.5
2017-04-17T19:54:05.773Z,34.8
2017-04-17T19:56:05.536Z,34.5
2017-04-17T19:58:05.300Z,34.7
2017-04-17T20:00:05.427Z,34.5
2017-04-17T20:02:05.308Z,34.9
2017-04-17T20:04:05.972Z,34.8
2017-04-17T20:06:06.025Z,34.8
2017-04-17T20:08:07.183Z,34.5
2017-04-17T20:10:05.402Z,34.5
2017-04-17T20:12:05.272Z,34.6
2017-04-17T20:14:05.958Z,34.5
2017-04-17T20:16:05.679Z,34.5
2017-04-17T20:18:10.971Z,34.5
2017-04-17T20:20:05.707Z,34.5
2017-04-17T20:22:07.979Z,34.5
2017-04-17T20:24:05.987Z,34.5
2017-04-17T20:26:10.754Z,34.7
2017-04-17T20:28:08.012Z,34.9
2017-04-17T20:30:05.947Z,34.9
2017-04-17T20:32:05.633Z,35.2
2017-04-17T20:34:05.351Z,35.1
2017-04-17T20:36:07.996Z,35.3
2017-04-17T20:38:10.735Z,35.1
2017-04-17T20:40:05.896Z,35
2017-04-17T20:42:08.466Z,35
2017-04-17T20:44:08.268Z,35
2017-04-17T20:46:08.502Z,34.9
2017-04-17T20:48:06.526Z,34.9
2017-04-17T20:50:05.798Z,35
2017-04-17T20:52:05.494Z,34.9
2017-04-17T20:54:05.774Z,34.9
2017-04-17T20:56:05.879Z,34.8
2017-04-17T20:58:05.543Z,34.8
2017-04-17T21:00:05.383Z,34.8
2017-04-17T21:02:05.363Z,34.9
2017-04-17T21:04:05.068Z,34.9
2017-04-17T21:06:06.117Z,34.9
2017-04-17T21:08:08.385Z,34.8
2017-04-17T21:10:05.078Z,34.8
2017-04-17T21:12:06.013Z,34.8
2017-04-17T21:14:05.861Z,34.9
2017-04-17T21:16:05.328Z,34.9
2017-04-17T21:18:05.606Z,34.8
2017-04-17T21:20:05.407Z,34.8
2017-04-17T21:22:05.095Z,34.5
2017-04-17T21:24:08.149Z,34.8
2017-04-17T21:26:10.921Z,34.5
2017-04-17T21:28:05.912Z,34.5
2017-04-17T21:30:05.915Z,34.7
2017-04-17T21:32:13.179Z,34.5
2017-04-17T21:34:05.805Z,34.5
2017-04-17T21:36:05.814Z,34.7
2017-04-17T21:38:05.601Z,34.4
2017-04-17T21:40:05.290Z,34.6
2017-04-17T21:42:08.251Z,34.7
2017-04-17T21:44:08.598Z,34.4
2017-04-17T21:46:08.518Z,34.3
2017-04-17T21:48:06.926Z,34.4
2017-04-17T21:50:08.175Z,34.4
2017-04-17T21:52:05.953Z,34.4
2017-04-17T21:54:06.756Z,34.4
2017-04-17T21:56:08.085Z,34.4
2017-04-17T21:58:05.858Z,34.4
2017-04-17T22:00:08.512Z,34.4
2017-04-17T22:02:05.228Z,34.4
2017-04-17T22:04:08.931Z,34.3
2017-04-17T22:06:08.255Z,34.2
2017-04-17T22:08:05.075Z,34.2
2017-04-17T22:10:05.840Z,34.3
2017-04-17T22:12:05.906Z,34.3
2017-04-17T22:14:05.133Z,34.3
2017-04-17T22:16:05.491Z,34.3
2017-04-17T22:18:06.020Z,34.3
2017-04-17T22:20:05.734Z,34.3
2017-04-17T22:22:07.994Z,34.2
2017-04-17T22:24:05.992Z,34
2017-04-17T22:26:05.688Z,34.2
2017-04-17T22:28:05.388Z,34
2017-04-17T22:30:15.501Z,33.9
2017-04-17T22:32:07.868Z,33.8
2017-04-17T22:34:05.598Z,33.8
2017-04-17T22:36:08.230Z,33.8
2017-04-17T22:38:05.536Z,33.8
2017-04-17T22:40:05.275Z,33.7
2017-04-17T22:42:06.263Z,33.7
2017-04-17T22:44:05.021Z,33.7
2017-04-17T22:46:05.739Z,33.8
2017-04-17T22:48:10.649Z,33.7
2017-04-17T22:50:05.304Z,33.6
2017-04-17T22:52:05.518Z,33.6
2017-04-17T22:54:05.445Z,33.6
2017-04-17T22:56:05.157Z,33.6
2017-04-17T22:58:05.367Z,33.6
2017-04-17T23:00:07.807Z,33.6
2017-04-17T23:02:10.597Z,33.5
2017-04-17T23:04:07.970Z,33.2
2017-04-17T23:06:05.858Z,33.2
2017-04-17T23:08:05.555Z,33.3
2017-04-17T23:10:05.305Z,33.3
2017-04-17T23:12:05.224Z,33.3
2017-04-17T23:14:05.990Z,33.2
2017-04-17T23:16:05.679Z,33.2
2017-04-17T23:18:05.498Z,33.1
2017-04-17T23:20:05.372Z,33.1
2017-04-17T23:22:05.054Z,33.1
2017-04-17T23:24:08.551Z,33.1
2017-04-17T23:26:10.327Z,33.1
2017-04-17T23:28:05.048Z,33.1
2017-04-17T23:30:05.984Z,33
2017-04-17T23:32:05.717Z,32.8
2017-04-17T23:34:05.416Z,33.1
2017-04-17T23:36:05.443Z,33
2017-04-17T23:38:05.132Z,32.8
2017-04-17T23:40:05.877Z,32.8
2017-04-17T23:42:05.970Z,32.8
2017-04-17T23:44:05.883Z,32.8
2017-04-17T23:46:05.618Z,32.8
2017-04-17T23:48:05.585Z,32.8
2017-04-17T23:50:05.321Z,32.7
2017-04-17T23:52:05.599Z,32.8
2017-04-17T23:54:05.428Z,32.8
2017-04-17T23:56:05.115Z,32.7
2017-04-17T23:58:05.813Z,32.7
